Last 24 Hours

UH Manoa Atmospheric Sciences

15 Minute Data | Pacific/Honolulu
as of 9/20/20 9:33 AM HST
Station Date Time Temp (°F) RH (%) Dew Pt (°F) Wind Spd (mph) Wind Dir (°) Wind Gust (mph) Latest Rain (In) Solar Rad (W/m2) Heat Index (°F) Barometric Pressure (inHg) Daily Rain (In) Daily Min Temp (°F) Daily Max Temp (°F) Daily Max Wind (mph)
UH Manoa Atmospheric Sciences 9/20/20 0930 81.4 66 69.2 6.7 NE | 46 13.3 0.00 545 84.7 30.08 0.00 77.5 82.6 15.4
UH Manoa Atmospheric Sciences 9/20/20 0915 81.4 67 69.5 5.8 NE | 52 11.0 0.00 343 84.8 30.08 0.00 77.5 82.1 15.4
UH Manoa Atmospheric Sciences 9/20/20 0900 80.8 69 69.9 5.7 NE | 47 9.8 0.00 571 84.2 30.08 0.00 77.5 81.7 15.4
UH Manoa Atmospheric Sciences 9/20/20 0845 80.6 70 70.1 4.0 ENE | 61 10.0 0.00 291 84.0 30.08 0.00 77.5 81.0 15.4
UH Manoa Atmospheric Sciences 9/20/20 0830 80.0 72 70.1 6.1 NE | 42 13.7 0.00 326 82.1 30.08 0.00 77.5 80.5 15.4
UH Manoa Atmospheric Sciences 9/20/20 0815 79.8 74 71.0 3.9 NE | 44 8.4 0.00 332 81.5 30.07 0.00 77.5 80.5 15.4
UH Manoa Atmospheric Sciences 9/20/20 0800 78.8 77 70.9 4.3 ENE | 59 7.1 0.00 275 78.8 30.07 0.00 77.5 79.4 15.4
UH Manoa Atmospheric Sciences 9/20/20 0745 78.0 79 70.8 4.4 ENE | 67 8.2 0.00 129 78.0 30.06 0.00 77.5 79.4 15.4
UH Manoa Atmospheric Sciences 9/20/20 0730 78.2 77 70.6 4.5 NE | 51 8.2 0.00 78 78.2 30.06 0.00 77.7 79.4 15.4
UH Manoa Atmospheric Sciences 9/20/20 0715 78.3 76 70.1 5.4 ENE | 65 10.2 0.00 58 78.3 30.05 0.00 77.8 79.4 15.4
UH Manoa Atmospheric Sciences 9/20/20 0700 78.2 76 69.9 5.1 ENE | 62 11.9 0.00 42 78.2 30.05 0.00 77.8 79.4 15.4
UH Manoa Atmospheric Sciences 9/20/20 0645 78.5 74 69.4 6.0 NE | 49 12.0 0.00 21 78.5 30.04 0.00 77.8 79.4 15.4
UH Manoa Atmospheric Sciences 9/20/20 0630 78.3 73 69.0 4.6 ENE | 68 8.1 0.00 4 78.3 30.04 0.00 77.8 79.4 15.4
UH Manoa Atmospheric Sciences 9/20/20 0615 78.2 74 69.1 4.4 NE | 54 10.0 0.00 0 78.2 30.04 0.00 77.8 79.4 15.4
UH Manoa Atmospheric Sciences 9/20/20 0600 78.2 74 69.3 5.5 NE | 53 14.1 0.00 0 78.2 30.04 0.00 77.8 79.4 15.4
UH Manoa Atmospheric Sciences 9/20/20 0545 78.3 74 69.5 5.1 NE | 48 10.1 0.00 0 78.3 30.03 0.00 77.8 79.4 15.4
UH Manoa Atmospheric Sciences 9/20/20 0530 78.7 73 69.2 5.3 ENE | 66 11.8 0.00 0 78.7 30.03 0.00 77.8 79.4 15.4
UH Manoa Atmospheric Sciences 9/20/20 0515 78.8 71 68.8 4.6 ENE | 59 7.9 0.00 0 78.8 30.03 0.00 77.8 79.4 15.4
UH Manoa Atmospheric Sciences 9/20/20 0500 78.7 71 68.6 4.5 ENE | 70 12.2 0.00 0 78.7 30.03 0.00 77.8 79.4 15.4
UH Manoa Atmospheric Sciences 9/20/20 0445 78.7 72 69.1 4.8 ENE | 68 10.7 0.00 0 78.7 30.03 0.00 77.8 79.4 15.4
UH Manoa Atmospheric Sciences 9/20/20 0430 78.7 73 69.3 3.7 NE | 55 8.6 0.00 0 78.7 30.02 0.00 77.8 79.4 15.4
UH Manoa Atmospheric Sciences 9/20/20 0415 78.6 73 69.4 4.5 ENE | 67 13.0 0.00 0 78.6 30.02 0.00 77.8 79.4 15.4
UH Manoa Atmospheric Sciences 9/20/20 0400 78.5 74 69.4 6.4 ENE | 62 12.8 0.00 0 78.5 30.02 0.00 77.8 79.4 15.4
UH Manoa Atmospheric Sciences 9/20/20 0345 78.5 74 69.4 6.9 ENE | 57 13.8 0.00 0 78.5 30.02 0.00 77.8 79.4 15.4
UH Manoa Atmospheric Sciences 9/20/20 0330 78.6 73 69.1 6.8 ENE | 66 13.0 0.00 0 78.6 30.03 0.00 77.8 79.4 15.4
UH Manoa Atmospheric Sciences 9/20/20 0315 78.6 73 69.2 7.7 ENE | 64 14.8 0.00 0 78.6 30.03 0.00 77.8 79.4 15.4
UH Manoa Atmospheric Sciences 9/20/20 0300 78.5 73 69.0 5.3 ENE | 69 10.7 0.00 0 78.5 30.03 0.00 77.8 79.4 15.4
UH Manoa Atmospheric Sciences 9/20/20 0245 78.3 73 68.8 6.6 ENE | 63 14.2 0.00 0 78.3 30.03 0.00 77.8 79.4 15.4
UH Manoa Atmospheric Sciences 9/20/20 0230 78.2 73 68.7 6.0 ENE | 67 12.9 0.00 0 78.2 30.03 0.00 77.8 79.4 15.4
UH Manoa Atmospheric Sciences 9/20/20 0215 78.5 72 68.6 7.4 NE | 50 13.5 0.00 0 78.5 30.04 0.00 78.3 79.4 15.4
UH Manoa Atmospheric Sciences 9/20/20 0200 78.8 70 68.1 8.6 NE | 43 15.4 0.00 0 78.8 30.03 0.00 78.4 79.4 15.4
UH Manoa Atmospheric Sciences 9/20/20 0145 78.7 71 68.4 5.2 NE | 41 12.4 0.00 0 78.7 30.04 0.00 78.4 79.4 15.0
UH Manoa Atmospheric Sciences 9/20/20 0130 78.7 73 69.2 4.2 ENE | 73 10.3 0.00 0 78.7 30.04 0.00 78.4 79.4 15.0
UH Manoa Atmospheric Sciences 9/20/20 0115 78.8 72 69.2 3.3 NE | 50 8.7 0.00 0 78.8 30.05 0.00 78.4 79.4 15.0
UH Manoa Atmospheric Sciences 9/20/20 0100 78.7 73 69.3 4.8 ENE | 59 15.0 0.00 0 78.7 30.05 0.00 78.4 79.4 15.0
UH Manoa Atmospheric Sciences 9/20/20 0045 78.8 73 69.6 6.0 NE | 45 12.8 0.00 0 78.8 30.05 0.00 78.6 79.4 12.8
UH Manoa Atmospheric Sciences 9/20/20 0030 78.7 73 69.4 4.5 NE | 43 12.2 0.00 0 78.7 30.06 0.00 78.7 79.4 12.5
UH Manoa Atmospheric Sciences 9/20/20 0015 79.0 73 69.5 5.6 NE | 51 12.5 0.00 0 79.0 30.06 0.00 78.7 79.4 12.5
UH Manoa Atmospheric Sciences 9/20/20 0000 79.2 72 69.3 4.5 NE | 56 11.6 0.00 0 79.2 30.07 0.00 77.2 85.5 26.2
UH Manoa Atmospheric Sciences 9/19/20 2345 79.3 72 69.6 4.3 NE | 46 9.8 0.00 0 79.3 30.07 0.00 77.2 85.5 26.2
UH Manoa Atmospheric Sciences 9/19/20 2330 79.3 72 69.7 4.3 NE | 53 11.8 0.00 0 79.3 30.07 0.00 77.2 85.5 26.2
UH Manoa Atmospheric Sciences 9/19/20 2315 79.0 74 70.0 4.8 NE | 54 10.2 0.00 0 79.0 30.07 0.00 77.2 85.5 26.2
UH Manoa Atmospheric Sciences 9/19/20 2300 79.2 73 69.9 4.7 ENE | 58 12.5 0.00 0 79.2 30.08 0.00 77.2 85.5 26.2
UH Manoa Atmospheric Sciences 9/19/20 2245 79.6 72 69.8 3.9 ENE | 58 8.0 0.00 0 79.6 30.08 0.00 77.2 85.5 26.2
UH Manoa Atmospheric Sciences 9/19/20 2230 79.6 71 69.3 4.6 ENE | 62 10.1 0.00 0 79.6 30.08 0.00 77.2 85.5 26.2
UH Manoa Atmospheric Sciences 9/19/20 2215 79.8 71 69.5 3.6 ENE | 68 8.0 0.00 0 79.9 30.08 0.00 77.2 85.5 26.2
UH Manoa Atmospheric Sciences 9/19/20 2200 79.5 71 69.5 4.2 ENE | 63 10.4 0.00 0 79.5 30.08 0.00 77.2 85.5 26.2
UH Manoa Atmospheric Sciences 9/19/20 2145 79.6 71 69.3 4.0 ENE | 77 11.2 0.00 0 79.6 30.08 0.00 77.2 85.5 26.2
UH Manoa Atmospheric Sciences 9/19/20 2130 79.7 71 69.4 5.8 NE | 50 11.8 0.00 0 79.7 30.07 0.00 77.2 85.5 26.2
UH Manoa Atmospheric Sciences 9/19/20 2115 79.6 71 69.6 5.6 NE | 49 10.7 0.00 0 79.6 30.07 0.00 77.2 85.5 26.2
UH Manoa Atmospheric Sciences 9/19/20 2100 79.7 71 69.5 5.7 NE | 50 11.9 0.00 0 79.8 30.07 0.00 77.2 85.5 26.2
UH Manoa Atmospheric Sciences 9/19/20 2045 79.6 72 69.9 4.8 ENE | 70 12.2 0.00 0 79.6 30.07 0.00 77.2 85.5 26.2
UH Manoa Atmospheric Sciences 9/19/20 2030 79.6 73 70.2 4.6 ENE | 71 10.7 0.00 0 79.6 30.06 0.00 77.2 85.5 26.2
UH Manoa Atmospheric Sciences 9/19/20 2015 79.7 73 70.2 3.7 NE | 52 10.6 0.00 0 79.7 30.06 0.00 77.2 85.5 26.2
UH Manoa Atmospheric Sciences 9/19/20 2000 79.8 73 70.2 5.4 NE | 42 10.9 0.00 0 79.8 30.05 0.00 77.2 85.5 26.2
UH Manoa Atmospheric Sciences 9/19/20 1945 79.8 72 70.0 5.0 ENE | 59 12.5 0.00 0 79.8 30.05 0.00 77.2 85.5 26.2
UH Manoa Atmospheric Sciences 9/19/20 1930 79.8 71 69.6 2.9 ENE | 61 8.3 0.00 0 79.9 30.05 0.00 77.2 85.5 26.2
UH Manoa Atmospheric Sciences 9/19/20 1915 79.7 69 68.9 4.4 ENE | 74 11.2 0.00 0 79.7 30.04 0.00 77.2 85.5 26.2
UH Manoa Atmospheric Sciences 9/19/20 1900 79.6 68 68.3 6.5 NE | 45 17.1 0.00 0 79.6 30.03 0.00 77.2 85.5 26.2
UH Manoa Atmospheric Sciences 9/19/20 1845 79.5 68 68.2 6.3 ENE | 60 17.4 0.00 2 79.5 30.03 0.00 77.2 85.5 26.2
UH Manoa Atmospheric Sciences 9/19/20 1830 78.7 73 69.2 5.2 NE | 43 19.1 0.00 9 78.7 30.03 0.00 77.2 85.5 26.2
UH Manoa Atmospheric Sciences 9/19/20 1815 78.4 74 69.6 6.4 NE | 39 17.6 0.00 29 78.4 30.03 0.00 77.2 85.5 26.2
UH Manoa Atmospheric Sciences 9/19/20 1800 78.9 74 69.7 6.7 ENE | 58 15.0 0.00 45 78.9 30.03 0.00 77.2 85.5 26.2
UH Manoa Atmospheric Sciences 9/19/20 1745 79.5 72 69.8 7.4 NE | 50 15.4 0.00 74 79.5 30.03 0.00 77.2 85.5 26.2
UH Manoa Atmospheric Sciences 9/19/20 1730 79.9 70 69.1 10.3 NE | 44 20.0 0.00 142 81.5 30.03 0.00 77.2 85.5 26.2
UH Manoa Atmospheric Sciences 9/19/20 1715 80.0 68 68.6 12.7 NE | 44 24.4 0.00 272 81.6 30.03 0.00 77.2 85.5 26.2
UH Manoa Atmospheric Sciences 9/19/20 1700 80.9 68 69.2 12.1 NE | 42 22.7 0.00 171 84.0 30.02 0.00 77.2 85.5 26.2
UH Manoa Atmospheric Sciences 9/19/20 1645 81.7 66 69.1 8.1 NE | 50 17.6 0.00 304 85.1 30.02 0.00 77.2 85.5 26.2
UH Manoa Atmospheric Sciences 9/19/20 1630 81.6 65 68.8 8.8 NE | 42 15.1 0.00 333 84.7 30.02 0.00 77.2 85.5 26.2
UH Manoa Atmospheric Sciences 9/19/20 1615 81.9 63 68.0 10.7 NE | 46 19.5 0.00 350 84.8 30.01 0.00 77.2 85.5 26.2
UH Manoa Atmospheric Sciences 9/19/20 1600 82.0 63 68.2 9.5 NE | 45 17.3 0.00 327 85.1 30.01 0.00 77.2 85.5 26.2
UH Manoa Atmospheric Sciences 9/19/20 1545 82.4 63 68.4 8.3 NE | 38 16.0 0.00 429 85.6 30.01 0.00 77.2 85.5 26.2
UH Manoa Atmospheric Sciences 9/19/20 1530 82.4 63 68.5 9.4 NE | 45 20.0 0.00 476 85.6 30.02 0.00 77.2 85.5 26.2
UH Manoa Atmospheric Sciences 9/19/20 1515 82.4 62 68.0 10.6 NE | 42 23.8 0.00 610 85.3 30.02 0.00 77.2 85.5 26.2
UH Manoa Atmospheric Sciences 9/19/20 1500 82.8 61 68.0 10.1 NE | 48 17.5 0.00 474 85.8 30.02 0.00 77.2 85.5 26.2
UH Manoa Atmospheric Sciences 9/19/20 1445 83.7 61 68.8 7.8 NE | 40 18.0 0.00 740 87.2 30.02 0.00 77.2 85.5 26.2
UH Manoa Atmospheric Sciences 9/19/20 1430 83.7 62 69.2 4.5 NE | 39 12.1 0.00 859 87.5 30.03 0.00 77.2 85.5 26.2
UH Manoa Atmospheric Sciences 9/19/20 1415 83.1 62 68.8 7.4 NE | 44 18.6 0.00 780 86.5 30.03 0.00 77.2 85.5 26.2
UH Manoa Atmospheric Sciences 9/19/20 1400 82.9 62 68.8 8.6 NE | 47 22.0 0.00 541 86.3 30.03 0.00 77.2 85.5 26.2
UH Manoa Atmospheric Sciences 9/19/20 1345 83.1 61 68.4 12.6 NE | 40 23.4 0.00 747 86.3 30.04 0.00 77.2 85.5 26.2
UH Manoa Atmospheric Sciences 9/19/20 1330 83.6 61 68.6 10.2 NE | 42 26.2 0.00 655 87.0 30.04 0.00 77.2 85.5 26.2
UH Manoa Atmospheric Sciences 9/19/20 1315 84.0 59 68.2 11.4 NE | 43 21.5 0.00 819 87.2 30.04 0.00 77.2 85.5 23.8
UH Manoa Atmospheric Sciences 9/19/20 1300 84.1 59 68.4 12.4 NE | 41 23.8 0.00 1,120 87.6 30.05 0.00 77.2 85.5 23.8
UH Manoa Atmospheric Sciences 9/19/20 1245 84.0 60 68.7 9.9 NE | 36 15.9 0.00 1,038 87.5 30.06 0.00 77.2 84.7 23.6
UH Manoa Atmospheric Sciences 9/19/20 1230 83.3 61 68.3 9.8 NE | 38 19.4 0.00 869 86.6 30.07 0.00 77.2 84.3 23.6
UH Manoa Atmospheric Sciences 9/19/20 1215 82.8 61 67.8 8.2 NE | 40 15.4 0.00 554 85.7 30.08 0.00 77.2 83.9 23.6
UH Manoa Atmospheric Sciences 9/19/20 1200 82.2 63 68.6 9.5 NE | 35 20.6 0.00 557 85.4 30.08 0.00 77.2 83.9 23.6
UH Manoa Atmospheric Sciences 9/19/20 1145 82.2 65 69.4 7.7 NE | 43 15.7 0.00 689 85.8 30.09 0.00 77.2 83.9 23.6
UH Manoa Atmospheric Sciences 9/19/20 1130 82.5 64 69.2 10.9 NE | 40 21.3 0.00 618 86.0 30.09 0.00 77.2 83.9 23.6
UH Manoa Atmospheric Sciences 9/19/20 1115 82.7 63 68.8 8.3 NE | 48 17.4 0.00 557 86.1 30.09 0.00 77.2 83.9 23.6
UH Manoa Atmospheric Sciences 9/19/20 1100 82.9 62 68.6 9.3 NE | 41 18.6 0.00 498 86.2 30.09 0.00 77.2 83.9 23.6
UH Manoa Atmospheric Sciences 9/19/20 1045 83.0 62 68.7 8.2 NE | 43 13.3 0.00 799 86.4 30.10 0.00 77.2 83.9 23.6
UH Manoa Atmospheric Sciences 9/19/20 1030 83.0 62 68.8 7.1 NE | 37 12.7 0.00 757 86.4 30.10 0.00 77.2 83.6 23.6
UH Manoa Atmospheric Sciences 9/19/20 1015 82.3 64 68.9 7.8 NE | 42 14.6 0.00 858 85.6 30.10 0.00 77.2 82.9 23.6
UH Manoa Atmospheric Sciences 9/19/20 1000 81.2 67 69.2 10.5 NE | 38 19.2 0.00 779 84.5 30.10 0.00 77.2 82.3 23.6
UH Manoa Atmospheric Sciences 9/19/20 0945 80.8 69 69.6 10.1 NE | 38 18.8 0.00 854 84.1 30.10 0.00 77.2 82.3 23.6
UH Manoa Atmospheric Sciences 9/19/20 0930 78.7 74 69.6 10.1 NE | 39 18.8 0.00 564 78.9 30.10 0.00 77.2 82.3 23.6
Max     84.1 79 71.0 12.7 - 26.2 0.00 1,120 87.6 30.10 0.00 78.7 85.5 26.2
Avg     80.2 69 69.2 6.7 - 14.1 0.00 240 81.4 30.05 - - - -
Min     78.0 59 67.8 2.9 - 7.1 0.00 0 78.0 30.01 0.00 77.2 79.4 12.5